createdAt,value
2024-02-03T00:01:39.491Z,23.60
2024-02-03T00:04:07.114Z,22.45
2024-02-03T00:06:34.764Z,21.60
2024-02-03T00:09:02.403Z,21.50
2024-02-03T00:11:30.344Z,20.10
2024-02-03T00:13:57.874Z,22.27
2024-02-03T00:16:25.434Z,21.63
2024-02-03T00:18:53.240Z,21.08
2024-02-03T00:21:20.839Z,21.95
2024-02-03T00:23:48.490Z,21.85
2024-02-03T00:26:16.100Z,22.38
2024-02-03T00:28:43.613Z,20.88
2024-02-03T00:31:11.120Z,21.58
2024-02-03T00:33:38.787Z,22.10
2024-02-03T00:36:06.675Z,19.92
2024-02-03T00:38:34.629Z,19.70
2024-02-03T00:41:02.133Z,20.95
2024-02-03T00:43:29.589Z,16.95
2024-02-03T00:45:57.218Z,19.23
2024-02-03T00:48:24.853Z,20.27
2024-02-03T00:50:52.540Z,17.20
2024-02-03T00:53:20.146Z,18.58
2024-02-03T00:55:47.763Z,16.35
2024-02-03T00:58:15.620Z,18.00
2024-02-03T01:00:43.186Z,16.77
2024-02-03T01:03:10.677Z,18.88
2024-02-03T01:05:38.645Z,18.80
2024-02-03T01:08:06.360Z,17.73
2024-02-03T01:10:33.988Z,18.80
2024-02-03T01:13:01.723Z,16.95
2024-02-03T01:15:29.215Z,15.25
2024-02-03T01:17:56.898Z,18.63
2024-02-03T01:20:24.455Z,18.65
2024-02-03T01:22:51.950Z,20.13
2024-02-03T01:25:19.773Z,20.25
2024-02-03T01:27:47.330Z,17.63
2024-02-03T01:30:15.025Z,18.15
2024-02-03T01:32:42.597Z,19.35
2024-02-03T01:35:11.027Z,23.40
2024-02-03T01:37:38.574Z,18.58
2024-02-03T01:40:06.930Z,21.52
2024-02-03T01:42:34.644Z,21.88
2024-02-03T01:45:02.337Z,23.95
2024-02-03T01:47:29.908Z,27.17
2024-02-03T01:49:57.748Z,25.40
2024-02-03T01:52:27.273Z,29.15
2024-02-03T01:54:56.014Z,27.15
2024-02-03T01:57:26.022Z,26.75
2024-02-03T01:59:54.714Z,26.08
2024-02-03T02:02:22.314Z,25.38
2024-02-03T02:04:50.046Z,24.85
2024-02-03T02:07:20.073Z,23.95
2024-02-03T02:09:49.323Z,27.00
2024-02-03T02:12:16.952Z,25.63
2024-02-03T02:14:44.628Z,23.60
2024-02-03T02:17:12.599Z,24.40
2024-02-03T02:19:40.187Z,22.92
2024-02-03T02:22:07.799Z,23.05
2024-02-03T02:24:35.394Z,23.65
2024-02-03T02:27:02.962Z,23.50
2024-02-03T02:29:30.438Z,22.20
2024-02-03T02:31:57.883Z,21.73
2024-02-03T02:34:25.503Z,22.05
2024-02-03T02:36:53.213Z,22.83
2024-02-03T02:39:20.952Z,27.70
2024-02-03T02:41:48.510Z,23.70
2024-02-03T02:44:16.007Z,25.27
2024-02-03T02:46:43.525Z,24.65
2024-02-03T02:49:11.744Z,23.95
2024-02-03T02:51:39.419Z,22.10
2024-02-03T02:54:06.969Z,25.63
2024-02-03T02:56:34.451Z,25.90
2024-02-03T02:59:02.428Z,21.60
2024-02-03T03:01:30.120Z,22.70
2024-02-03T03:03:58.566Z,23.65
2024-02-03T03:06:26.212Z,22.58
2024-02-03T03:08:53.723Z,24.98
2024-02-03T03:11:21.593Z,23.60
2024-02-03T03:13:49.132Z,25.20
2024-02-03T03:16:16.690Z,23.60
2024-02-03T03:18:44.258Z,25.38
2024-02-03T03:21:12.834Z,24.67
2024-02-03T03:23:40.381Z,28.08
2024-02-03T03:26:07.874Z,24.25
2024-02-03T03:28:35.453Z,23.58
2024-02-03T03:31:03.022Z,25.95
2024-02-03T03:33:30.675Z,28.27
2024-02-03T03:35:58.285Z,25.45
2024-02-03T03:38:27.763Z,30.95
2024-02-03T03:40:58.232Z,28.50
2024-02-03T03:43:25.711Z,26.60
2024-02-03T03:45:53.300Z,26.23
2024-02-03T03:48:21.089Z,28.40
2024-02-03T03:50:49.576Z,27.70
2024-02-03T03:53:17.095Z,23.42
2024-02-03T03:55:44.617Z,26.58
2024-02-03T03:58:12.909Z,24.17
2024-02-03T04:00:40.471Z,28.48
2024-02-03T04:03:08.092Z,29.80
2024-02-03T04:05:35.655Z,28.77
2024-02-03T04:08:04.917Z,24.73
2024-02-03T04:10:32.498Z,24.60
2024-02-03T04:13:02.947Z,25.90
2024-02-03T04:15:30.901Z,24.65
2024-02-03T04:17:58.742Z,26.40
2024-02-03T04:20:27.001Z,26.38
2024-02-03T04:22:54.555Z,25.30
2024-02-03T04:25:22.087Z,28.85
2024-02-03T04:27:50.204Z,24.92
2024-02-03T04:30:23.197Z,25.27
2024-02-03T04:32:54.245Z,26.05
2024-02-03T04:35:22.654Z,25.50
2024-02-03T04:37:50.190Z,27.48
2024-02-03T04:40:17.767Z,25.92
2024-02-03T04:42:45.396Z,26.98
2024-02-03T04:45:12.980Z,26.50
2024-02-03T04:47:40.560Z,28.65
2024-02-03T04:50:08.900Z,27.15
2024-02-03T04:52:36.443Z,29.48
2024-02-03T04:55:04.315Z,31.77
2024-02-03T04:57:31.948Z,26.40
2024-02-03T04:59:59.494Z,27.38
2024-02-03T05:02:29.166Z,28.75
2024-02-03T05:04:57.391Z,27.88
2024-02-03T05:07:25.004Z,30.27
2024-02-03T05:09:52.634Z,29.38
2024-02-03T05:12:20.338Z,28.67
2024-02-03T05:14:48.009Z,29.27
2024-02-03T05:17:15.603Z,28.92
2024-02-03T05:19:43.229Z,33.20
2024-02-03T05:22:10.820Z,28.70
2024-02-03T05:24:38.654Z,28.98
2024-02-03T05:27:06.167Z,28.15
2024-02-03T05:29:33.617Z,28.90
2024-02-03T05:32:01.105Z,26.42
2024-02-03T05:34:28.681Z,31.42
2024-02-03T05:36:56.629Z,26.08
2024-02-03T05:39:24.236Z,26.80
2024-02-03T05:41:51.909Z,26.55
2024-02-03T05:44:19.488Z,27.52
2024-02-03T05:46:47.051Z,27.23
2024-02-03T05:49:14.668Z,24.40
2024-02-03T05:51:42.305Z,23.58
2024-02-03T05:54:09.878Z,22.88
2024-02-03T05:56:40.779Z,24.98
2024-02-03T05:59:26.339Z,19.80
2024-02-03T06:01:57.011Z,24.58
2024-02-03T06:04:25.168Z,22.33
2024-02-03T06:06:52.754Z,20.80
2024-02-03T06:09:20.365Z,19.95
2024-02-03T06:11:47.914Z,21.35
2024-02-03T06:14:15.420Z,21.52
2024-02-03T06:16:43.695Z,24.58
2024-02-03T06:19:11.302Z,24.15
2024-02-03T06:21:38.903Z,24.88
2024-02-03T06:24:06.775Z,20.65
2024-02-03T06:26:34.590Z,21.45
2024-02-03T06:29:02.041Z,20.88
2024-02-03T06:31:29.534Z,23.23
2024-02-03T06:33:57.178Z,21.67
2024-02-03T06:36:24.786Z,19.02
2024-02-03T06:38:52.384Z,26.55
2024-02-03T06:41:19.987Z,20.75
2024-02-03T06:43:47.493Z,23.23
2024-02-03T06:46:15.036Z,21.30
2024-02-03T06:48:42.777Z,18.77
2024-02-03T06:51:10.484Z,19.20
2024-02-03T06:53:37.999Z,18.70
2024-02-03T06:56:06.196Z,21.65
2024-02-03T06:58:33.735Z,17.02
2024-02-03T07:01:04.836Z,18.20
2024-02-03T07:03:33.358Z,18.65
2024-02-03T07:06:01.007Z,25.55
2024-02-03T07:08:28.614Z,18.88
2024-02-03T07:10:56.179Z,24.27
2024-02-03T07:13:23.813Z,16.13
2024-02-03T07:15:52.511Z,16.40
2024-02-03T07:18:21.292Z,18.58
2024-02-03T07:20:49.172Z,15.27
2024-02-03T07:23:16.943Z,17.63
2024-02-03T07:25:44.600Z,19.65
2024-02-03T07:28:12.155Z,17.10
2024-02-03T07:30:39.782Z,17.48
2024-02-03T07:33:09.313Z,18.45
2024-02-03T07:35:37.433Z,13.98
2024-02-03T07:38:05.360Z,16.90
2024-02-03T07:40:32.931Z,18.15
2024-02-03T07:43:00.571Z,19.70
2024-02-03T07:45:28.175Z,16.50
2024-02-03T07:47:55.843Z,19.60
2024-02-03T07:50:24.145Z,19.13
2024-02-03T07:52:51.833Z,19.77
2024-02-03T07:55:19.407Z,18.90
2024-02-03T07:57:50.840Z,19.75
2024-02-03T08:00:19.502Z,20.63
2024-02-03T08:02:47.076Z,18.25
2024-02-03T08:05:14.784Z,20.52
2024-02-03T08:07:42.315Z,19.17
2024-02-03T08:13:36.398Z,16.40
2024-02-03T08:16:04.213Z,21.35
2024-02-03T08:18:32.247Z,24.50
2024-02-03T08:20:59.841Z,19.25
2024-02-03T08:23:27.455Z,21.13
2024-02-03T08:25:56.435Z,18.60
2024-02-03T08:28:23.978Z,21.52
2024-02-03T08:30:51.666Z,19.83
2024-02-03T08:33:19.419Z,21.20
2024-02-03T08:35:47.233Z,18.65
2024-02-03T08:38:14.748Z,17.40
2024-02-03T08:40:42.254Z,19.08
2024-02-03T08:43:09.746Z,19.98
2024-02-03T08:45:37.516Z,14.65
2024-02-03T08:48:05.793Z,13.90
2024-02-03T08:50:33.363Z,17.67
2024-02-03T08:53:00.881Z,18.15
2024-02-03T08:55:29.832Z,18.85
2024-02-03T08:57:57.485Z,15.63
2024-02-03T09:00:25.044Z,12.43
2024-02-03T09:02:52.592Z,11.93
2024-02-03T09:05:20.518Z,13.35
2024-02-03T09:07:48.101Z,17.85
2024-02-03T09:10:15.593Z,13.68
2024-02-03T09:12:43.502Z,14.38
2024-02-03T09:15:11.152Z,14.63
2024-02-03T09:17:38.630Z,16.70
2024-02-03T09:20:06.907Z,13.23
2024-02-03T09:22:34.578Z,11.27
2024-02-03T09:25:02.085Z,11.35
2024-02-03T09:27:29.537Z,11.13
2024-02-03T09:29:57.253Z,12.60
2024-02-03T09:32:28.076Z,12.02
2024-02-03T09:34:56.002Z,10.75
2024-02-03T09:39:54.142Z,10.57
2024-02-03T09:42:21.673Z,10.05
2024-02-03T09:44:49.393Z,11.18
2024-02-03T09:47:17.594Z,11.60
2024-02-03T09:49:45.938Z,12.77
2024-02-03T09:52:16.100Z,9.77
2024-02-03T09:54:47.065Z,13.32
2024-02-03T09:57:14.975Z,14.23
2024-02-03T09:59:42.600Z,10.43
2024-02-03T10:02:10.133Z,13.05
2024-02-03T10:04:41.921Z,14.30
2024-02-03T10:07:09.665Z,11.98
2024-02-03T10:12:22.041Z,12.38
2024-02-03T10:15:08.810Z,10.50
2024-02-03T10:17:36.707Z,11.85
2024-02-03T10:20:08.157Z,13.52
2024-02-03T10:22:38.677Z,9.45
2024-02-03T10:25:12.841Z,7.95
2024-02-03T10:27:42.748Z,9.80
2024-02-03T10:30:11.268Z,10.20
2024-02-03T10:32:38.886Z,10.80
2024-02-03T10:35:07.232Z,13.55
2024-02-03T10:37:34.802Z,9.50
2024-02-03T10:40:02.846Z,19.23
2024-02-03T10:42:38.351Z,12.00
2024-02-03T10:45:12.717Z,12.80
2024-02-03T10:47:46.788Z,10.50
2024-02-03T10:50:15.878Z,9.20
2024-02-03T10:52:47.921Z,9.18
2024-02-03T10:55:20.421Z,9.40
2024-02-03T10:57:50.886Z,9.20
2024-02-03T11:00:19.684Z,9.05
2024-02-03T11:02:54.795Z,7.50
2024-02-03T11:05:30.426Z,10.07
2024-02-03T11:08:11.194Z,10.15
2024-02-03T11:10:39.713Z,12.18
2024-02-03T11:13:24.457Z,9.93
2024-02-03T11:15:59.419Z,9.60
2024-02-03T11:18:28.770Z,7.95
2024-02-03T11:21:09.528Z,9.50
2024-02-03T11:23:37.089Z,9.60
2024-02-03T11:26:04.999Z,9.40
2024-02-03T11:28:34.552Z,10.18
2024-02-03T11:31:06.083Z,8.98
2024-02-03T11:33:47.128Z,8.20
2024-02-03T11:36:15.286Z,7.97
2024-02-03T11:38:50.408Z,7.07
2024-02-03T11:41:19.960Z,10.43
2024-02-03T11:43:50.027Z,10.32
2024-02-03T11:46:19.029Z,15.45
2024-02-03T11:48:47.419Z,10.82
2024-02-03T11:51:16.763Z,7.00
2024-02-03T11:53:44.515Z,8.00
2024-02-03T11:56:12.258Z,7.68
2024-02-03T11:58:42.909Z,8.90
2024-02-03T12:01:12.820Z,9.60
2024-02-03T12:03:40.558Z,7.85
2024-02-03T12:06:09.225Z,6.28
2024-02-03T12:08:36.975Z,9.18
2024-02-03T12:11:07.556Z,7.85
2024-02-03T12:13:42.583Z,8.75
2024-02-03T12:16:10.233Z,10.55
2024-02-03T12:18:42.269Z,8.43
2024-02-03T12:23:39.313Z,10.30
2024-02-03T12:26:06.930Z,10.40
2024-02-03T12:28:35.106Z,9.23
2024-02-03T12:31:02.849Z,11.30
2024-02-03T12:33:30.630Z,8.70
2024-02-03T12:35:58.888Z,10.30
2024-02-03T12:38:26.568Z,9.60
2024-02-03T12:40:54.129Z,8.20
2024-02-03T12:43:21.659Z,9.68
2024-02-03T12:45:49.860Z,7.43
2024-02-03T12:48:19.106Z,7.60
2024-02-03T12:50:46.840Z,10.30
2024-02-03T12:53:14.581Z,8.95
2024-02-03T12:55:43.280Z,7.45
2024-02-03T12:58:11.249Z,8.55
2024-02-03T13:00:38.965Z,6.82
2024-02-03T13:03:06.554Z,8.95
2024-02-03T13:05:34.122Z,8.40
2024-02-03T13:08:01.595Z,6.60
2024-02-03T13:10:29.161Z,7.35
2024-02-03T13:12:58.087Z,8.82
2024-02-03T13:15:25.643Z,7.65
2024-02-03T13:17:53.320Z,9.30
2024-02-03T13:20:23.091Z,9.63
2024-02-03T13:22:50.668Z,9.35
2024-02-03T13:25:18.181Z,8.23
2024-02-03T13:27:46.202Z,9.00
2024-02-03T13:30:16.379Z,9.05
2024-02-03T13:32:44.051Z,9.52
2024-02-03T13:35:12.104Z,10.15
2024-02-03T13:37:41.278Z,7.85
2024-02-03T13:40:09.537Z,8.50
2024-02-03T13:42:37.096Z,7.68
2024-02-03T13:45:06.349Z,8.82
2024-02-03T13:47:33.906Z,8.35
2024-02-03T13:50:01.735Z,10.25
2024-02-03T13:52:29.605Z,9.27
2024-02-03T13:54:57.211Z,11.18
2024-02-03T13:57:24.908Z,9.50
2024-02-03T13:59:52.394Z,9.43
2024-02-03T14:02:19.846Z,8.68
2024-02-03T14:04:47.544Z,11.40
2024-02-03T14:07:15.253Z,11.43
2024-02-03T14:09:42.816Z,11.52
2024-02-03T14:12:10.332Z,8.95
2024-02-03T14:14:38.459Z,8.68
2024-02-03T14:17:06.492Z,8.43
2024-02-03T14:19:34.078Z,10.63
2024-02-03T14:22:02.136Z,10.25
2024-02-03T14:24:29.790Z,10.73
2024-02-03T14:26:57.321Z,12.05
2024-02-03T14:29:24.785Z,10.88
2024-02-03T14:31:52.324Z,10.05
2024-02-03T14:34:19.891Z,11.18
2024-02-03T14:36:47.595Z,12.27
2024-02-03T14:39:19.862Z,8.48
2024-02-03T14:41:48.132Z,11.40
2024-02-03T14:44:15.748Z,8.85
2024-02-03T14:46:43.223Z,8.68
2024-02-03T14:49:11.181Z,9.75
2024-02-03T14:51:38.998Z,8.82
2024-02-03T14:54:06.721Z,12.98
2024-02-03T14:56:34.301Z,12.23
2024-02-03T14:59:02.229Z,10.90
2024-02-03T15:01:29.832Z,9.68
2024-02-03T15:03:58.985Z,8.27
2024-02-03T15:06:26.704Z,9.60
2024-02-03T15:08:55.083Z,8.60
2024-02-03T15:11:22.864Z,6.85
2024-02-03T15:13:50.376Z,7.00
2024-02-03T15:16:17.927Z,6.97
2024-02-03T15:18:45.600Z,6.95
2024-02-03T15:21:13.405Z,7.15
2024-02-03T15:23:40.998Z,7.68
2024-02-03T15:26:08.510Z,6.75
2024-02-03T15:28:36.384Z,5.53
2024-02-03T15:31:06.316Z,6.10
2024-02-03T15:33:37.692Z,7.07
2024-02-03T15:36:07.692Z,7.63
2024-02-03T15:38:35.440Z,6.60
2024-02-03T15:41:03.366Z,7.82
2024-02-03T15:43:31.048Z,6.75
2024-02-03T15:45:58.792Z,6.97
2024-02-03T15:48:26.640Z,9.10
2024-02-03T15:50:55.041Z,9.38
2024-02-03T15:53:22.601Z,11.05
2024-02-03T15:55:50.436Z,9.35
2024-02-03T15:58:18.180Z,12.00
2024-02-03T16:00:46.029Z,9.40
2024-02-03T16:03:13.926Z,12.05
2024-02-03T16:05:41.620Z,9.80
2024-02-03T16:08:09.231Z,8.73
2024-02-03T16:10:36.750Z,9.93
2024-02-03T16:13:04.652Z,10.00
2024-02-03T16:15:32.519Z,11.13
2024-02-03T16:18:00.221Z,8.52
2024-02-03T16:20:28.034Z,8.40
2024-02-03T16:22:55.663Z,7.82
2024-02-03T16:25:23.535Z,6.32
2024-02-03T16:27:52.441Z,10.07
2024-02-03T16:30:20.021Z,8.23
2024-02-03T16:32:47.785Z,7.95
2024-02-03T16:35:15.887Z,9.05
2024-02-03T16:37:43.548Z,11.98
2024-02-03T16:40:12.764Z,10.43
2024-02-03T16:42:40.416Z,9.23
2024-02-03T16:45:08.773Z,9.38
2024-02-03T16:47:36.289Z,10.35
2024-02-03T16:50:03.994Z,8.57
2024-02-03T16:52:31.485Z,10.32
2024-02-03T16:54:59.037Z,11.52
2024-02-03T16:57:29.242Z,9.32
2024-02-03T16:59:58.275Z,12.15
2024-02-03T17:02:26.512Z,9.52
2024-02-03T17:04:55.079Z,9.50
2024-02-03T17:07:27.802Z,8.10
2024-02-03T17:09:57.583Z,11.75
2024-02-03T17:12:28.034Z,11.02
2024-02-03T17:14:56.734Z,10.00
2024-02-03T17:17:24.469Z,11.27
2024-02-03T17:19:52.022Z,12.95
2024-02-03T17:22:19.579Z,9.90
2024-02-03T17:24:47.631Z,13.48
2024-02-03T17:27:15.440Z,10.88
2024-02-03T17:29:43.488Z,11.68
2024-02-03T17:32:10.988Z,13.40
2024-02-03T17:34:40.711Z,11.60
2024-02-03T17:37:08.766Z,10.68
2024-02-03T17:39:36.377Z,10.70
2024-02-03T17:42:04.135Z,13.60
2024-02-03T17:44:31.661Z,11.43
2024-02-03T17:46:59.122Z,9.00
2024-02-03T17:49:26.693Z,10.02
2024-02-03T17:51:56.900Z,11.05
2024-02-03T17:54:24.409Z,11.23
2024-02-03T17:56:51.957Z,8.75
2024-02-03T17:59:21.620Z,12.45
2024-02-03T18:01:50.020Z,10.50
2024-02-03T18:04:20.569Z,12.05
2024-02-03T18:06:48.331Z,10.32
2024-02-03T18:09:16.087Z,13.32
2024-02-03T18:11:49.930Z,14.70
2024-02-03T18:14:17.374Z,12.88
2024-02-03T18:16:44.936Z,15.85
2024-02-03T18:19:12.556Z,13.25
2024-02-03T18:21:41.523Z,13.25
2024-02-03T18:24:09.184Z,13.20
2024-02-03T18:26:36.817Z,14.30
2024-02-03T18:29:04.287Z,15.45
2024-02-03T18:31:32.444Z,17.67
2024-02-03T18:34:00.356Z,12.77
2024-02-03T18:36:28.268Z,11.50
2024-02-03T18:38:55.832Z,17.60
2024-02-03T18:41:23.418Z,15.13
2024-02-03T18:43:51.675Z,16.40
2024-02-03T18:46:19.319Z,17.92
2024-02-03T18:48:47.758Z,22.30
2024-02-03T18:51:15.527Z,17.98
2024-02-03T18:53:43.039Z,20.30
2024-02-03T18:56:10.584Z,21.45
2024-02-03T18:58:39.033Z,22.50
2024-02-03T19:01:06.765Z,19.70
2024-02-03T19:03:34.503Z,16.05
2024-02-03T19:06:02.064Z,19.55
2024-02-03T19:08:33.825Z,17.40
2024-02-03T19:11:02.195Z,17.00
2024-02-03T19:13:29.744Z,17.70
2024-02-03T19:15:57.582Z,22.60
2024-02-03T19:18:25.385Z,17.52
2024-02-03T19:20:53.245Z,18.33
2024-02-03T19:23:21.315Z,14.82
2024-02-03T19:25:52.886Z,27.00
2024-02-03T19:28:20.775Z,19.42
2024-02-03T19:30:48.404Z,14.95
2024-02-03T19:33:16.073Z,18.20
2024-02-03T19:35:45.354Z,18.30
2024-02-03T19:38:15.728Z,13.30
2024-02-03T19:40:46.855Z,17.15
2024-02-03T19:43:17.696Z,17.15
2024-02-03T19:45:51.454Z,17.88
2024-02-03T19:48:21.649Z,27.83
2024-02-03T19:50:49.890Z,14.75
2024-02-03T19:53:17.457Z,18.75
2024-02-03T19:55:45.130Z,15.40
2024-02-03T19:58:12.672Z,22.08
2024-02-03T20:00:40.398Z,22.00
2024-02-03T20:03:07.977Z,21.83
2024-02-03T20:05:35.479Z,20.80
2024-02-03T20:08:03.296Z,18.98
2024-02-03T20:10:31.989Z,21.80
2024-02-03T20:13:01.893Z,24.60
2024-02-03T20:15:29.527Z,25.05
2024-02-03T20:17:57.821Z,24.05
2024-02-03T20:20:25.692Z,29.92
2024-02-03T20:22:53.657Z,30.48
2024-02-03T20:25:21.349Z,30.13
2024-02-03T20:27:49.548Z,29.50
2024-02-03T20:30:17.318Z,32.20
2024-02-03T20:32:44.953Z,32.40
2024-02-03T20:35:13.341Z,33.90
2024-02-03T20:37:40.855Z,33.83
2024-02-03T20:40:09.264Z,33.60
2024-02-03T20:42:37.048Z,37.00
2024-02-03T20:45:05.533Z,38.60
2024-02-03T20:47:33.402Z,39.45
2024-02-03T20:50:02.048Z,38.50
2024-02-03T20:52:30.315Z,45.50
2024-02-03T20:54:58.015Z,46.95
2024-02-03T20:57:25.647Z,40.80
2024-02-03T20:59:53.329Z,43.47
2024-02-03T21:02:20.995Z,46.20
2024-02-03T21:04:49.040Z,45.22
2024-02-03T21:07:19.800Z,40.67
2024-02-03T21:09:47.599Z,44.38
2024-02-03T21:12:15.203Z,54.30
2024-02-03T21:14:42.977Z,42.92
2024-02-03T21:17:10.538Z,43.78
2024-02-03T21:19:38.361Z,43.03
2024-02-03T21:22:06.274Z,43.58
2024-02-03T21:24:33.806Z,43.55
2024-02-03T21:27:01.478Z,44.20
2024-02-03T21:29:28.953Z,50.40
2024-02-03T21:31:56.417Z,44.75
2024-02-03T21:34:24.005Z,47.03
2024-02-03T21:36:51.656Z,46.33
2024-02-03T21:39:19.228Z,41.55
2024-02-03T21:41:46.924Z,44.90
2024-02-03T21:44:14.770Z,39.80
2024-02-03T21:46:42.410Z,41.63
2024-02-03T21:49:10.114Z,45.72
2024-02-03T21:51:37.758Z,43.38
2024-02-03T21:54:05.353Z,46.88
2024-02-03T21:56:32.845Z,43.90
2024-02-03T21:59:00.338Z,38.20
2024-02-03T22:01:27.941Z,38.40
2024-02-03T22:03:57.412Z,40.50
2024-02-03T22:06:25.579Z,40.05
2024-02-03T22:08:53.135Z,36.03
2024-02-03T22:11:20.590Z,34.20
2024-02-03T22:13:48.085Z,33.70
2024-02-03T22:16:15.593Z,33.55
2024-02-03T22:18:43.149Z,34.45
2024-02-03T22:21:10.639Z,33.83
2024-02-03T22:23:39.214Z,37.13
2024-02-03T22:26:06.851Z,34.63
2024-02-03T22:28:34.414Z,32.95
2024-02-03T22:31:02.066Z,31.63
2024-02-03T22:33:29.660Z,27.63
2024-02-03T22:35:57.204Z,28.25
2024-02-03T22:38:24.667Z,24.48
2024-02-03T22:40:52.354Z,27.83
2024-02-03T22:43:20.330Z,25.58
2024-02-03T22:45:48.067Z,27.60
2024-02-03T22:48:15.843Z,29.35
2024-02-03T22:50:46.089Z,27.90
2024-02-03T22:53:13.627Z,26.42
2024-02-03T22:55:41.146Z,25.15
2024-02-03T22:58:09.036Z,25.75
2024-02-03T23:00:36.719Z,28.13
2024-02-03T23:03:05.517Z,25.65
2024-02-03T23:05:33.637Z,24.30
2024-02-03T23:08:01.200Z,19.83
2024-02-03T23:10:28.668Z,20.52
2024-02-03T23:12:57.637Z,19.58
2024-02-03T23:15:28.604Z,16.88
2024-02-03T23:17:58.813Z,17.00
2024-02-03T23:20:29.173Z,15.30
2024-02-03T23:22:58.353Z,15.70
2024-02-03T23:25:28.827Z,12.65
2024-02-03T23:27:59.830Z,12.50
2024-02-03T23:30:31.006Z,11.60
2024-02-03T23:33:00.598Z,11.60
2024-02-03T23:35:29.080Z,15.23
2024-02-03T23:37:58.650Z,12.65
2024-02-03T23:40:28.328Z,12.43
2024-02-03T23:43:00.820Z,12.27
2024-02-03T23:45:29.657Z,12.25
2024-02-03T23:47:58.771Z,13.10
2024-02-03T23:50:29.922Z,12.63
2024-02-03T23:52:59.911Z,12.53
2024-02-03T23:55:29.020Z,13.85
2024-02-03T23:57:57.457Z,14.90
